sensor_id;sensor_type;location;lat;lon;timestamp;P1;durP1;ratioP1;P2;durP2;ratioP2
43413;SDS011;29013;49.676;8.606;2022-07-04T00:05:51;6.42;;;1.09;;
43413;SDS011;29013;49.676;8.606;2022-07-04T00:11:45;3.89;;;0.87;;
43413;SDS011;29013;49.676;8.606;2022-07-04T00:17:34;1.8;;;0.82;;
43413;SDS011;29013;49.676;8.606;2022-07-04T00:23:25;4.63;;;0.73;;
43413;SDS011;29013;49.676;8.606;2022-07-04T00:29:18;3.96;;;1.06;;
43413;SDS011;29013;49.676;8.606;2022-07-04T00:34:50;2.95;;;0.76;;
43413;SDS011;29013;49.676;8.606;2022-07-04T00:40:23;2.05;;;0.88;;
43413;SDS011;29013;49.676;8.606;2022-07-04T00:46:07;1.16;;;0.64;;
43413;SDS011;29013;49.676;8.606;2022-07-04T00:51:50;1.06;;;0.72;;
43413;SDS011;29013;49.676;8.606;2022-07-04T00:57:33;1.9;;;0.62;;
43413;SDS011;29013;49.676;8.606;2022-07-04T01:03:15;4.61;;;0.98;;
43413;SDS011;29013;49.676;8.606;2022-07-04T01:09:00;2.19;;;0.88;;
43413;SDS011;29013;49.676;8.606;2022-07-04T01:14:43;2.13;;;0.97;;
43413;SDS011;29013;49.676;8.606;2022-07-04T01:20:22;2.27;;;0.72;;
43413;SDS011;29013;49.676;8.606;2022-07-04T01:26:14;3.64;;;0.89;;
43413;SDS011;29013;49.676;8.606;2022-07-04T01:32:09;1.92;;;0.79;;
43413;SDS011;29013;49.676;8.606;2022-07-04T01:37:45;2.16;;;0.63;;
43413;SDS011;29013;49.676;8.606;2022-07-04T01:43:42;4.79;;;1.0;;
43413;SDS011;29013;49.676;8.606;2022-07-04T01:49:52;3.51;;;0.6;;
43413;SDS011;29013;49.676;8.606;2022-07-04T01:55:24;1.89;;;0.69;;
43413;SDS011;29013;49.676;8.606;2022-07-04T02:01:09;1.56;;;0.59;;
43413;SDS011;29013;49.676;8.606;2022-07-04T02:06:40;2.08;;;0.73;;
43413;SDS011;29013;49.676;8.606;2022-07-04T02:12:09;1.52;;;0.65;;
43413;SDS011;29013;49.676;8.606;2022-07-04T02:17:39;2.05;;;0.84;;
43413;SDS011;29013;49.676;8.606;2022-07-04T02:23:13;1.54;;;0.95;;
43413;SDS011;29013;49.676;8.606;2022-07-04T02:28:52;1.49;;;0.84;;
43413;SDS011;29013;49.676;8.606;2022-07-04T02:34:17;2.73;;;0.77;;
43413;SDS011;29013;49.676;8.606;2022-07-04T02:39:46;1.19;;;0.59;;
43413;SDS011;29013;49.676;8.606;2022-07-04T02:45:22;1.08;;;0.67;;
43413;SDS011;29013;49.676;8.606;2022-07-04T02:50:52;1.91;;;0.74;;
43413;SDS011;29013;49.676;8.606;2022-07-04T02:56:18;2.32;;;0.88;;
43413;SDS011;29013;49.676;8.606;2022-07-04T03:01:53;2.72;;;0.8;;
43413;SDS011;29013;49.676;8.606;2022-07-04T03:07:19;1.66;;;1.22;;
43413;SDS011;29013;49.676;8.606;2022-07-04T03:12:47;2.52;;;0.95;;
43413;SDS011;29013;49.676;8.606;2022-07-04T03:18:10;1.84;;;0.79;;
43413;SDS011;29013;49.676;8.606;2022-07-04T03:23:35;5.82;;;1.07;;
43413;SDS011;29013;49.676;8.606;2022-07-04T03:29:02;2.26;;;0.93;;
43413;SDS011;29013;49.676;8.606;2022-07-04T03:34:32;2.2;;;0.84;;
43413;SDS011;29013;49.676;8.606;2022-07-04T03:40:10;1.52;;;0.88;;
43413;SDS011;29013;49.676;8.606;2022-07-04T03:45:36;6.29;;;1.3;;
43413;SDS011;29013;49.676;8.606;2022-07-04T03:51:00;1.97;;;1.01;;
43413;SDS011;29013;49.676;8.606;2022-07-04T03:56:29;1.56;;;1.0;;
43413;SDS011;29013;49.676;8.606;2022-07-04T04:01:53;4.77;;;1.02;;
43413;SDS011;29013;49.676;8.606;2022-07-04T04:07:19;3.37;;;1.43;;
43413;SDS011;29013;49.676;8.606;2022-07-04T04:12:40;3.61;;;1.15;;
43413;SDS011;29013;49.676;8.606;2022-07-04T04:18:07;1.53;;;0.99;;
43413;SDS011;29013;49.676;8.606;2022-07-04T04:23:33;1.63;;;0.98;;
43413;SDS011;29013;49.676;8.606;2022-07-04T04:28:55;2.11;;;1.17;;
43413;SDS011;29013;49.676;8.606;2022-07-04T04:34:23;3.46;;;1.25;;
43413;SDS011;29013;49.676;8.606;2022-07-04T04:39:51;2.27;;;1.26;;
43413;SDS011;29013;49.676;8.606;2022-07-04T04:45:18;1.54;;;1.19;;
43413;SDS011;29013;49.676;8.606;2022-07-04T04:50:40;2.21;;;1.19;;
43413;SDS011;29013;49.676;8.606;2022-07-04T04:56:03;4.61;;;1.23;;
43413;SDS011;29013;49.676;8.606;2022-07-04T05:01:29;2.42;;;1.23;;
43413;SDS011;29013;49.676;8.606;2022-07-04T05:06:51;1.4;;;0.88;;
43413;SDS011;29013;49.676;8.606;2022-07-04T05:12:19;3.48;;;1.38;;
43413;SDS011;29013;49.676;8.606;2022-07-04T05:17:47;1.84;;;0.97;;
43413;SDS011;29013;49.676;8.606;2022-07-04T05:23:12;2.38;;;1.05;;
43413;SDS011;29013;49.676;8.606;2022-07-04T05:28:39;1.87;;;1.29;;
43413;SDS011;29013;49.676;8.606;2022-07-04T05:34:04;4.52;;;1.16;;
43413;SDS011;29013;49.676;8.606;2022-07-04T05:39:26;1.61;;;1.04;;
43413;SDS011;29013;49.676;8.606;2022-07-04T05:44:54;3.0;;;1.26;;
43413;SDS011;29013;49.676;8.606;2022-07-04T05:50:22;1.33;;;1.04;;
43413;SDS011;29013;49.676;8.606;2022-07-04T05:55:47;2.47;;;1.01;;
43413;SDS011;29013;49.676;8.606;2022-07-04T06:01:09;3.23;;;1.22;;
43413;SDS011;29013;49.676;8.606;2022-07-04T06:06:49;1.76;;;1.02;;
43413;SDS011;29013;49.676;8.606;2022-07-04T06:12:10;2.39;;;1.15;;
43413;SDS011;29013;49.676;8.606;2022-07-04T06:17:38;2.84;;;1.37;;
43413;SDS011;29013;49.676;8.606;2022-07-04T06:23:06;1.98;;;1.08;;
43413;SDS011;29013;49.676;8.606;2022-07-04T06:28:30;1.67;;;0.96;;
43413;SDS011;29013;49.676;8.606;2022-07-04T06:33:57;1.16;;;0.97;;
43413;SDS011;29013;49.676;8.606;2022-07-04T06:39:21;1.8;;;1.12;;
43413;SDS011;29013;49.676;8.606;2022-07-04T06:44:48;4.72;;;1.29;;
43413;SDS011;29013;49.676;8.606;2022-07-04T06:50:17;2.4;;;1.02;;
43413;SDS011;29013;49.676;8.606;2022-07-04T06:55:45;1.17;;;1.04;;
43413;SDS011;29013;49.676;8.606;2022-07-04T07:01:26;3.94;;;0.87;;
43413;SDS011;29013;49.676;8.606;2022-07-04T07:06:49;4.48;;;1.08;;
43413;SDS011;29013;49.676;8.606;2022-07-04T07:12:21;4.97;;;1.06;;
43413;SDS011;29013;49.676;8.606;2022-07-04T07:17:43;1.4;;;0.88;;
43413;SDS011;29013;49.676;8.606;2022-07-04T07:23:09;2.29;;;0.76;;
43413;SDS011;29013;49.676;8.606;2022-07-04T07:28:38;2.29;;;0.65;;
43413;SDS011;29013;49.676;8.606;2022-07-04T07:34:05;2.28;;;0.67;;
43413;SDS011;29013;49.676;8.606;2022-07-04T07:39:31;2.32;;;0.47;;
43413;SDS011;29013;49.676;8.606;2022-07-04T07:45:02;1.76;;;0.57;;
43413;SDS011;29013;49.676;8.606;2022-07-04T07:50:27;2.61;;;0.64;;
43413;SDS011;29013;49.676;8.606;2022-07-04T07:55:52;1.54;;;0.96;;
43413;SDS011;29013;49.676;8.606;2022-07-04T08:01:21;2.38;;;0.65;;
43413;SDS011;29013;49.676;8.606;2022-07-04T08:06:49;2.87;;;0.74;;
43413;SDS011;29013;49.676;8.606;2022-07-04T08:12:12;1.5;;;0.65;;
43413;SDS011;29013;49.676;8.606;2022-07-04T08:17:40;1.38;;;0.63;;
43413;SDS011;29013;49.676;8.606;2022-07-04T08:23:02;1.58;;;0.73;;
43413;SDS011;29013;49.676;8.606;2022-07-04T08:28:26;2.17;;;0.74;;
43413;SDS011;29013;49.676;8.606;2022-07-04T08:33:48;1.42;;;0.59;;
43413;SDS011;29013;49.676;8.606;2022-07-04T08:39:09;3.25;;;0.61;;
43413;SDS011;29013;49.676;8.606;2022-07-04T08:44:40;2.14;;;0.78;;
43413;SDS011;29013;49.676;8.606;2022-07-04T08:50:09;3.86;;;0.82;;
43413;SDS011;29013;49.676;8.606;2022-07-04T08:55:34;2.2;;;0.78;;
43413;SDS011;29013;49.676;8.606;2022-07-04T09:01:02;1.33;;;0.67;;
43413;SDS011;29013;49.676;8.606;2022-07-04T09:06:26;1.75;;;0.59;;
43413;SDS011;29013;49.676;8.606;2022-07-04T09:11:53;1.83;;;0.56;;
43413;SDS011;29013;49.676;8.606;2022-07-04T09:17:20;1.33;;;0.61;;
43413;SDS011;29013;49.676;8.606;2022-07-04T09:22:44;3.7;;;0.69;;
43413;SDS011;29013;49.676;8.606;2022-07-04T09:28:10;4.3;;;0.66;;
43413;SDS011;29013;49.676;8.606;2022-07-04T09:33:48;2.83;;;0.94;;
43413;SDS011;29013;49.676;8.606;2022-07-04T09:39:13;1.62;;;0.71;;
43413;SDS011;29013;49.676;8.606;2022-07-04T09:44:44;1.83;;;0.73;;
43413;SDS011;29013;49.676;8.606;2022-07-04T09:50:12;2.68;;;0.8;;
43413;SDS011;29013;49.676;8.606;2022-07-04T09:55:37;4.39;;;0.89;;
43413;SDS011;29013;49.676;8.606;2022-07-04T10:01:00;3.37;;;0.89;;
43413;SDS011;29013;49.676;8.606;2022-07-04T10:06:26;1.62;;;0.68;;
43413;SDS011;29013;49.676;8.606;2022-07-04T10:11:51;2.03;;;0.67;;
43413;SDS011;29013;49.676;8.606;2022-07-04T10:17:19;1.43;;;0.52;;
43413;SDS011;29013;49.676;8.606;2022-07-04T10:22:48;3.82;;;0.87;;
43413;SDS011;29013;49.676;8.606;2022-07-04T10:28:12;2.14;;;0.77;;
43413;SDS011;29013;49.676;8.606;2022-07-04T10:33:39;1.28;;;0.65;;
43413;SDS011;29013;49.676;8.606;2022-07-04T10:39:02;4.28;;;0.77;;
43413;SDS011;29013;49.676;8.606;2022-07-04T10:44:25;2.81;;;0.67;;
43413;SDS011;29013;49.676;8.606;2022-07-04T10:49:48;1.89;;;0.77;;
43413;SDS011;29013;49.676;8.606;2022-07-04T10:55:13;1.29;;;0.54;;
43413;SDS011;29013;49.676;8.606;2022-07-04T11:00:39;1.94;;;0.55;;
43413;SDS011;29013;49.676;8.606;2022-07-04T11:06:17;1.3;;;0.52;;
43413;SDS011;29013;49.676;8.606;2022-07-04T11:12:07;0.8;;;0.58;;
43413;SDS011;29013;49.676;8.606;2022-07-04T11:17:36;1.09;;;0.49;;
43413;SDS011;29013;49.676;8.606;2022-07-04T11:23:04;2.66;;;0.46;;
43413;SDS011;29013;49.676;8.606;2022-07-04T11:28:29;3.01;;;0.69;;
43413;SDS011;29013;49.676;8.606;2022-07-04T11:33:53;4.12;;;0.64;;
43413;SDS011;29013;49.676;8.606;2022-07-04T11:39:18;0.86;;;0.46;;
43413;SDS011;29013;49.676;8.606;2022-07-04T11:44:45;0.97;;;0.61;;
43413;SDS011;29013;49.676;8.606;2022-07-04T11:50:10;5.66;;;0.69;;
43413;SDS011;29013;49.676;8.606;2022-07-04T11:55:34;1.09;;;0.6;;
43413;SDS011;29013;49.676;8.606;2022-07-04T12:01:00;1.82;;;0.48;;
43413;SDS011;29013;49.676;8.606;2022-07-04T12:06:28;0.77;;;0.66;;
43413;SDS011;29013;49.676;8.606;2022-07-04T12:11:57;1.52;;;0.49;;
43413;SDS011;29013;49.676;8.606;2022-07-04T12:17:19;2.46;;;0.45;;
43413;SDS011;29013;49.676;8.606;2022-07-04T12:22:51;0.98;;;0.53;;
43413;SDS011;29013;49.676;8.606;2022-07-04T12:28:17;1.68;;;0.4;;
43413;SDS011;29013;49.676;8.606;2022-07-04T12:33:55;2.08;;;0.58;;
43413;SDS011;29013;49.676;8.606;2022-07-04T12:39:31;1.52;;;0.4;;
43413;SDS011;29013;49.676;8.606;2022-07-04T12:44:56;1.99;;;0.47;;
43413;SDS011;29013;49.676;8.606;2022-07-04T12:50:26;0.49;;;0.4;;
43413;SDS011;29013;49.676;8.606;2022-07-04T12:56:00;2.65;;;0.56;;
43413;SDS011;29013;49.676;8.606;2022-07-04T13:01:25;1.14;;;0.46;;
43413;SDS011;29013;49.676;8.606;2022-07-04T13:06:51;1.3;;;0.53;;
43413;SDS011;29013;49.676;8.606;2022-07-04T13:12:19;1.38;;;0.5;;
43413;SDS011;29013;49.676;8.606;2022-07-04T13:17:42;1.27;;;0.39;;
43413;SDS011;29013;49.676;8.606;2022-07-04T13:23:10;0.92;;;0.42;;
43413;SDS011;29013;49.676;8.606;2022-07-04T13:28:38;1.51;;;0.49;;
43413;SDS011;29013;49.676;8.606;2022-07-04T13:34:03;1.38;;;0.38;;
43413;SDS011;29013;49.676;8.606;2022-07-04T13:39:30;1.83;;;0.39;;
43413;SDS011;29013;49.676;8.606;2022-07-04T13:44:57;5.8;;;0.57;;
43413;SDS011;29013;49.676;8.606;2022-07-04T13:50:25;1.98;;;0.56;;
43413;SDS011;29013;49.676;8.606;2022-07-04T13:55:54;0.5;;;0.31;;
43413;SDS011;29013;49.676;8.606;2022-07-04T14:01:21;1.41;;;0.41;;
43413;SDS011;29013;49.676;8.606;2022-07-04T14:06:49;2.04;;;0.7;;
43413;SDS011;29013;49.676;8.606;2022-07-04T14:12:14;1.74;;;0.65;;
43413;SDS011;29013;49.676;8.606;2022-07-04T14:17:44;5.52;;;0.41;;
43413;SDS011;29013;49.676;8.606;2022-07-04T14:23:12;1.92;;;0.6;;
43413;SDS011;29013;49.676;8.606;2022-07-04T14:28:42;1.48;;;0.64;;
43413;SDS011;29013;49.676;8.606;2022-07-04T14:34:08;1.54;;;0.39;;
43413;SDS011;29013;49.676;8.606;2022-07-04T14:39:35;1.74;;;0.33;;
43413;SDS011;29013;49.676;8.606;2022-07-04T14:45:05;2.1;;;0.43;;
43413;SDS011;29013;49.676;8.606;2022-07-04T14:50:41;1.13;;;0.48;;
43413;SDS011;29013;49.676;8.606;2022-07-04T14:56:08;1.03;;;0.38;;
43413;SDS011;29013;49.676;8.606;2022-07-04T15:01:40;2.07;;;0.36;;
43413;SDS011;29013;49.676;8.606;2022-07-04T15:07:12;0.46;;;0.33;;
43413;SDS011;29013;49.676;8.606;2022-07-04T15:12:45;0.32;;;0.27;;
43413;SDS011;29013;49.676;8.606;2022-07-04T15:18:37;0.7;;;0.36;;
43413;SDS011;29013;49.676;8.606;2022-07-04T15:24:07;0.52;;;0.36;;
43413;SDS011;29013;49.676;8.606;2022-07-04T15:29:36;0.68;;;0.4;;
43413;SDS011;29013;49.676;8.606;2022-07-04T15:35:01;0.8;;;0.27;;
43413;SDS011;29013;49.676;8.606;2022-07-04T15:40:36;1.06;;;0.35;;
43413;SDS011;29013;49.676;8.606;2022-07-04T15:46:02;1.35;;;0.39;;
43413;SDS011;29013;49.676;8.606;2022-07-04T15:51:34;0.43;;;0.28;;
43413;SDS011;29013;49.676;8.606;2022-07-04T15:56:58;1.06;;;0.46;;
43413;SDS011;29013;49.676;8.606;2022-07-04T16:02:26;0.33;;;0.26;;
43413;SDS011;29013;49.676;8.606;2022-07-04T16:07:52;0.67;;;0.33;;
43413;SDS011;29013;49.676;8.606;2022-07-04T16:13:20;1.5;;;0.36;;
43413;SDS011;29013;49.676;8.606;2022-07-04T16:18:48;0.96;;;0.34;;
43413;SDS011;29013;49.676;8.606;2022-07-04T16:24:14;1.53;;;0.34;;
43413;SDS011;29013;49.676;8.606;2022-07-04T16:29:37;0.76;;;0.37;;
43413;SDS011;29013;49.676;8.606;2022-07-04T16:35:07;0.86;;;0.32;;
43413;SDS011;29013;49.676;8.606;2022-07-04T16:40:35;1.43;;;0.44;;
43413;SDS011;29013;49.676;8.606;2022-07-04T16:45:59;2.82;;;0.6;;
43413;SDS011;29013;49.676;8.606;2022-07-04T16:51:25;2.4;;;0.31;;
43413;SDS011;29013;49.676;8.606;2022-07-04T16:56:48;0.79;;;0.25;;
43413;SDS011;29013;49.676;8.606;2022-07-04T17:02:16;1.22;;;0.44;;
43413;SDS011;29013;49.676;8.606;2022-07-04T17:07:41;0.98;;;0.37;;
43413;SDS011;29013;49.676;8.606;2022-07-04T17:13:06;2.66;;;0.46;;
43413;SDS011;29013;49.676;8.606;2022-07-04T17:18:32;1.34;;;0.4;;
43413;SDS011;29013;49.676;8.606;2022-07-04T17:23:59;0.42;;;0.4;;
43413;SDS011;29013;49.676;8.606;2022-07-04T17:29:27;1.93;;;0.28;;
43413;SDS011;29013;49.676;8.606;2022-07-04T17:34:54;1.08;;;0.35;;
43413;SDS011;29013;49.676;8.606;2022-07-04T17:40:21;1.66;;;0.48;;
43413;SDS011;29013;49.676;8.606;2022-07-04T17:45:48;1.67;;;0.47;;
43413;SDS011;29013;49.676;8.606;2022-07-04T17:51:15;2.34;;;0.7;;
43413;SDS011;29013;49.676;8.606;2022-07-04T17:56:43;0.49;;;0.29;;
43413;SDS011;29013;49.676;8.606;2022-07-04T18:02:10;0.87;;;0.38;;
43413;SDS011;29013;49.676;8.606;2022-07-04T18:07:38;0.66;;;0.54;;
43413;SDS011;29013;49.676;8.606;2022-07-04T18:13:05;1.1;;;0.54;;
43413;SDS011;29013;49.676;8.606;2022-07-04T18:18:33;0.89;;;0.36;;
43413;SDS011;29013;49.676;8.606;2022-07-04T18:24:01;1.01;;;0.36;;
43413;SDS011;29013;49.676;8.606;2022-07-04T18:29:30;0.74;;;0.47;;
43413;SDS011;29013;49.676;8.606;2022-07-04T18:34:59;1.26;;;0.39;;
43413;SDS011;29013;49.676;8.606;2022-07-04T18:40:24;1.1;;;0.4;;
43413;SDS011;29013;49.676;8.606;2022-07-04T18:45:51;0.79;;;0.39;;
43413;SDS011;29013;49.676;8.606;2022-07-04T18:51:18;1.29;;;0.44;;
43413;SDS011;29013;49.676;8.606;2022-07-04T18:56:46;2.18;;;0.64;;
43413;SDS011;29013;49.676;8.606;2022-07-04T19:02:14;4.38;;;0.54;;
43413;SDS011;29013;49.676;8.606;2022-07-04T19:07:36;2.04;;;0.39;;
43413;SDS011;29013;49.676;8.606;2022-07-04T19:13:09;2.6;;;0.47;;
43413;SDS011;29013;49.676;8.606;2022-07-04T19:18:36;0.5;;;0.26;;
43413;SDS011;29013;49.676;8.606;2022-07-04T19:24:00;1.49;;;0.54;;
43413;SDS011;29013;49.676;8.606;2022-07-04T19:29:27;4.59;;;0.51;;
43413;SDS011;29013;49.676;8.606;2022-07-04T19:34:53;1.32;;;0.5;;
43413;SDS011;29013;49.676;8.606;2022-07-04T19:40:21;3.94;;;0.57;;
43413;SDS011;29013;49.676;8.606;2022-07-04T19:45:53;1.93;;;0.5;;
43413;SDS011;29013;49.676;8.606;2022-07-04T19:51:21;0.66;;;0.5;;
43413;SDS011;29013;49.676;8.606;2022-07-04T19:56:48;1.81;;;0.51;;
43413;SDS011;29013;49.676;8.606;2022-07-04T20:02:14;1.76;;;0.86;;
43413;SDS011;29013;49.676;8.606;2022-07-04T20:07:36;0.73;;;0.51;;
43413;SDS011;29013;49.676;8.606;2022-07-04T20:13:02;0.95;;;0.48;;
43413;SDS011;29013;49.676;8.606;2022-07-04T20:18:32;1.53;;;0.41;;
43413;SDS011;29013;49.676;8.606;2022-07-04T20:23:56;0.6;;;0.47;;
43413;SDS011;29013;49.676;8.606;2022-07-04T20:29:20;2.34;;;0.49;;
43413;SDS011;29013;49.676;8.606;2022-07-04T20:34:52;1.92;;;0.72;;
43413;SDS011;29013;49.676;8.606;2022-07-04T20:40:18;3.34;;;0.86;;
43413;SDS011;29013;49.676;8.606;2022-07-04T20:45:46;1.08;;;0.69;;
43413;SDS011;29013;49.676;8.606;2022-07-04T20:51:21;1.83;;;0.59;;
43413;SDS011;29013;49.676;8.606;2022-07-04T20:56:46;0.79;;;0.7;;
43413;SDS011;29013;49.676;8.606;2022-07-04T21:02:18;0.79;;;0.72;;
43413;SDS011;29013;49.676;8.606;2022-07-04T21:07:53;0.86;;;0.59;;
43413;SDS011;29013;49.676;8.606;2022-07-04T21:13:33;1.6;;;0.49;;
43413;SDS011;29013;49.676;8.606;2022-07-04T21:19:01;2.4;;;0.74;;
43413;SDS011;29013;49.676;8.606;2022-07-04T21:24:40;1.5;;;0.92;;
43413;SDS011;29013;49.676;8.606;2022-07-04T21:30:12;3.21;;;0.79;;
43413;SDS011;29013;49.676;8.606;2022-07-04T21:35:51;0.61;;;0.61;;
43413;SDS011;29013;49.676;8.606;2022-07-04T21:41:34;1.08;;;0.5;;
43413;SDS011;29013;49.676;8.606;2022-07-04T21:47:05;1.8;;;0.52;;
43413;SDS011;29013;49.676;8.606;2022-07-04T21:52:39;1.82;;;0.65;;
43413;SDS011;29013;49.676;8.606;2022-07-04T21:58:10;0.51;;;0.51;;
43413;SDS011;29013;49.676;8.606;2022-07-04T22:03:38;2.01;;;0.78;;
43413;SDS011;29013;49.676;8.606;2022-07-04T22:09:24;1.08;;;0.54;;
43413;SDS011;29013;49.676;8.606;2022-07-04T22:14:50;1.9;;;0.75;;
43413;SDS011;29013;49.676;8.606;2022-07-04T22:20:22;1.67;;;0.54;;
43413;SDS011;29013;49.676;8.606;2022-07-04T22:25:53;1.59;;;0.85;;
43413;SDS011;29013;49.676;8.606;2022-07-04T22:31:17;1.41;;;0.66;;
43413;SDS011;29013;49.676;8.606;2022-07-04T22:36:45;2.36;;;0.76;;
43413;SDS011;29013;49.676;8.606;2022-07-04T22:42:22;1.39;;;0.67;;
43413;SDS011;29013;49.676;8.606;2022-07-04T22:47:46;2.32;;;0.66;;
43413;SDS011;29013;49.676;8.606;2022-07-04T22:53:15;1.73;;;1.03;;
43413;SDS011;29013;49.676;8.606;2022-07-04T22:58:49;4.04;;;0.79;;
43413;SDS011;29013;49.676;8.606;2022-07-04T23:05:03;1.44;;;0.92;;
43413;SDS011;29013;49.676;8.606;2022-07-04T23:10:37;0.89;;;0.75;;
43413;SDS011;29013;49.676;8.606;2022-07-04T23:16:40;1.63;;;0.75;;
43413;SDS011;29013;49.676;8.606;2022-07-04T23:22:24;1.52;;;0.86;;
43413;SDS011;29013;49.676;8.606;2022-07-04T23:28:09;1.74;;;0.81;;
43413;SDS011;29013;49.676;8.606;2022-07-04T23:33:38;1.65;;;0.85;;
43413;SDS011;29013;49.676;8.606;2022-07-04T23:39:06;1.33;;;0.91;;
43413;SDS011;29013;49.676;8.606;2022-07-04T23:44:47;0.75;;;0.55;;
43413;SDS011;29013;49.676;8.606;2022-07-04T23:50:21;2.38;;;1.23;;
43413;SDS011;29013;49.676;8.606;2022-07-04T23:55:57;1.29;;;0.96;;
